Impacts METAR Board
IDs:

KIAH - Houston/Bush Intl, TX, US

Updated at: 0800 UTC 25 May 2020
Potential Impact None Slight Moderate High
Time 24/20Z 24/21Z 24/22Z 24/23Z 25/00Z 25/01Z 25/02Z 25/03Z 25/04Z 25/05Z 25/06Z 25/07Z 25/08Z
Temp82 81 82 69 69 69 68 68 67 67 67 67 67
Dewpt72 73 73 66 68 66 66 65 65 64 64 65 65
Altim29.80 29.81 29.80 29.83 29.81 29.85 29.78 29.78 29.78 29.81 29.79 29.77 29.73
VIS10 10 10 0.75 7 6 10 10 10 10 10 10 10
CIG150 130 38 15 45 70 80 250 250 250 250 160 250
CoverBKNBKNBKNOVCOVCOVCBKNBKNBKNBKNBKNBKNBKN
FltCatVFRVFRVFRLIFRVFRVFRVFRVFRVFRVFRVFRVFRVFR
WX------+TSRA BR-TSRA-TSRA BR--------------
WDir1601101103500130901001300120110100
WSpd11 6 9 23 4 8 6 14 15 0 3 5 6
WGst-- -- -- 29 -- -- -- -- -- -- -- -- --
Raw hourly METARs
KIAH 241953Z 16011KT 10SM FEW033 SCT048 SCT100 BKN150 BKN180 BKN250 28/22 A2980 RMK AO2 PK WND 14030/1916 LTG DSNT ALQDS RAE1854B42E53 TSE26 SLP091 CB DSNT ALQDS P0000 T02780222
KIAH 242053Z 11006KT 10SM FEW025 SCT045 BKN130 BKN250 27/23 A2981 RMK AO2 LTG DSNT W-NE RAB18E33 TSB05E29 SLP093 CB DSNT W-N-NE MOV N P0000 60021 T02720228 55015
KIAH 242153Z 11009KT 10SM FEW025 BKN038 BKN130 BKN250 28/23 A2980 RMK AO2 LTG DSNT ALQDS SLP089 CB DSNT W-N-NE MOV N T02780228
KIAH 242253Z 35023G29KT 3/4SM +TSRA BR FEW005 BKN015CB OVC040 21/19 A2983 RMK AO2 LTG DSNT W-NE RAB00 TSB09 SLP102 PK WND 33031/30 WSHFT 23 OCNL LTGICCG OHD ALQDS TS OHD ALQDS MOV LTL P0031 T02060189
KIAH 242353Z VRB04KT 7SM -TSRA FEW009 SCT020CB OVC045 21/20 A2981 RMK AO2 LTG DSNT ALQDS SLP095 FRQ LTGICCG NE-SE TS NE-SE MOV NE CB ALQDS P0093 60145 T02060200 10289 20194 50002
KIAH 250053Z 13008KT 6SM -TSRA BR FEW009 SCT030CB BKN070 OVC130 21/19 A2985 RMK AO2 SLP109 FRQ LTGICCCCG ALQDS TS ALQDS MOV NE P0004 T02060189
KIAH 250153Z 09006KT 10SM FEW007 SCT030 BKN080 BKN130 BKN250 20/19 A2978 RMK AO2 RAE52 TSE43 SLP085 FRQ LTGICCCCG DSNT NE-SE-S CB DSNT NE-SE-S MOV E P0001 T02000189
KIAH 250253Z 10014KT 10SM FEW007 FEW060 SCT130 BKN250 20/18 A2978 RMK AO2 SLP083 60005 T02000183 58012
KIAH 250353Z 13015KT 10SM FEW008 FEW100 BKN250 19/18 A2978 RMK AO2 SLP084 T01940183
KIAH 250453Z 00000KT 10SM SCT008 SCT100 BKN250 19/18 A2981 RMK AO2 SLP095 T01940178
KIAH 250553Z 12003KT 10SM FEW009 BKN250 19/18 A2979 RMK AO2 SLP086 60005 T01940178 10211 20194 403170194 50003
KIAH 250653Z 11005KT 10SM FEW007 BKN160 BKN250 19/18 A2977 RMK AO2 SLP080 T01940183
KIAH 250753Z 10006KT 10SM FEW009 FEW160 BKN250 19/18 A2973 RMK AO2 SLP068 T01940183



Page loaded:  08:41 UTC  |   01:41 AM Pacific  |   02:41 AM Mountain  |   03:41 AM Central  |   04:41 AM Eastern

 

ADVISORIES

FORECASTS

FORECASTS

OBSERVATIONS

USER TOOLS

ABOUT US